createdAt,value
2022-12-31T00:03:35.431Z,12.30
2022-12-31T00:09:37.209Z,12.30
2022-12-31T00:15:40.070Z,12.30
2022-12-31T00:21:43.675Z,12.10
2022-12-31T00:27:45.400Z,12.10
2022-12-31T00:33:47.519Z,12.10
2022-12-31T00:39:49.230Z,12.10
2022-12-31T00:45:50.997Z,12.10
2022-12-31T00:51:52.843Z,12.00
2022-12-31T00:57:54.707Z,11.90
2022-12-31T01:04:00.801Z,11.90
2022-12-31T01:10:02.571Z,11.80
2022-12-31T01:16:12.752Z,11.80
2022-12-31T01:22:14.739Z,11.80
2022-12-31T01:28:16.495Z,11.80
2022-12-31T01:34:18.304Z,11.80
2022-12-31T01:40:20.097Z,11.80
2022-12-31T01:46:26.736Z,11.80
2022-12-31T01:52:32.952Z,11.70
2022-12-31T01:58:43.197Z,11.60
2022-12-31T02:04:45.054Z,11.60
2022-12-31T02:10:46.822Z,11.60
2022-12-31T02:17:19.992Z,11.60
2022-12-31T02:23:46.217Z,11.60
2022-12-31T02:30:21.711Z,11.60
2022-12-31T02:36:28.139Z,11.60
2022-12-31T02:42:29.889Z,11.60
2022-12-31T02:48:55.327Z,11.60
2022-12-31T02:55:07.592Z,11.60
2022-12-31T03:01:28.765Z,11.60
2022-12-31T03:07:32.793Z,11.60
2022-12-31T03:13:34.530Z,11.70
2022-12-31T03:19:54.800Z,11.70
2022-12-31T03:25:57.156Z,11.60
2022-12-31T03:31:58.921Z,11.70
2022-12-31T03:38:01.385Z,11.80
2022-12-31T03:44:03.154Z,11.90
2022-12-31T03:50:06.839Z,12.00
2022-12-31T03:56:08.647Z,12.00
2022-12-31T04:02:10.737Z,12.00
2022-12-31T04:08:12.690Z,12.20
2022-12-31T04:14:14.573Z,12.30
2022-12-31T04:20:17.112Z,12.40
2022-12-31T04:26:19.325Z,12.30
2022-12-31T04:32:21.104Z,12.10
2022-12-31T04:38:22.838Z,12.10
2022-12-31T04:44:24.624Z,11.90
2022-12-31T04:50:26.360Z,11.70
2022-12-31T04:56:28.897Z,11.60
2022-12-31T05:02:30.900Z,11.60
2022-12-31T05:08:33.782Z,11.50
2022-12-31T05:14:35.572Z,11.40
2022-12-31T05:20:37.361Z,11.50
2022-12-31T05:26:39.327Z,11.40
2022-12-31T05:32:41.373Z,11.40
2022-12-31T05:38:43.146Z,11.40
2022-12-31T05:44:44.966Z,11.50
2022-12-31T05:50:46.769Z,11.50
2022-12-31T05:56:48.542Z,11.50
2022-12-31T06:02:50.338Z,11.60
2022-12-31T06:08:52.704Z,11.60
2022-12-31T06:14:54.492Z,11.60
2022-12-31T06:20:59.338Z,11.80
2022-12-31T06:27:01.100Z,11.90
2022-12-31T06:33:02.963Z,12.20
2022-12-31T06:39:04.769Z,12.40
2022-12-31T06:45:07.261Z,12.60
2022-12-31T06:51:17.204Z,12.70
2022-12-31T06:57:19.482Z,13.10
2022-12-31T07:03:56.151Z,13.20
2022-12-31T07:10:17.674Z,12.70
2022-12-31T07:16:41.512Z,12.40
2022-12-31T07:22:44.688Z,12.20
2022-12-31T07:29:05.236Z,12.00
2022-12-31T07:35:31.280Z,11.80
2022-12-31T07:41:54.732Z,11.80
2022-12-31T07:48:02.221Z,11.70
2022-12-31T07:54:08.726Z,11.70
2022-12-31T08:00:15.669Z,11.60
2022-12-31T08:06:40.415Z,11.60
2022-12-31T08:12:42.337Z,11.70
2022-12-31T08:18:44.568Z,11.90
2022-12-31T08:25:12.923Z,12.00
2022-12-31T08:31:21.350Z,12.50
2022-12-31T08:37:23.062Z,12.70
2022-12-31T08:43:42.207Z,12.90
2022-12-31T08:49:44.241Z,13.10
2022-12-31T08:55:47.892Z,13.60
2022-12-31T09:02:01.774Z,13.80
2022-12-31T09:08:28.310Z,14.30
2022-12-31T09:14:49.887Z,14.70
2022-12-31T09:20:51.829Z,14.80
2022-12-31T09:27:06.219Z,14.90
2022-12-31T09:33:11.786Z,15.10
2022-12-31T09:39:45.800Z,15.30
2022-12-31T09:46:07.085Z,15.40
2022-12-31T09:52:20.509Z,15.40
2022-12-31T09:58:28.326Z,15.60
2022-12-31T10:04:48.034Z,15.60
2022-12-31T10:11:03.029Z,15.70
2022-12-31T10:17:23.378Z,15.80
2022-12-31T10:24:01.912Z,15.80
2022-12-31T10:30:17.780Z,15.90
2022-12-31T10:36:32.272Z,15.80
2022-12-31T10:42:40.090Z,15.90
2022-12-31T10:48:47.664Z,16.00
2022-12-31T10:55:04.457Z,16.00
2022-12-31T11:01:30.366Z,15.80
2022-12-31T11:07:56.092Z,15.70
2022-12-31T11:14:32.001Z,15.70
2022-12-31T11:21:04.475Z,15.80
2022-12-31T11:27:13.291Z,15.70
2022-12-31T11:33:36.373Z,15.50
2022-12-31T11:40:08.500Z,15.00
2022-12-31T11:46:16.448Z,14.90
2022-12-31T11:52:46.154Z,15.20
2022-12-31T11:58:51.372Z,15.30
2022-12-31T12:04:56.645Z,15.50
2022-12-31T12:11:07.454Z,15.70
2022-12-31T12:17:15.971Z,15.80
2022-12-31T12:23:25.497Z,15.90
2022-12-31T12:29:31.820Z,16.00
2022-12-31T12:35:35.587Z,16.00
2022-12-31T12:41:37.492Z,16.20
2022-12-31T12:47:43.140Z,16.20
2022-12-31T12:54:05.552Z,16.30
2022-12-31T13:00:16.127Z,16.20
2022-12-31T13:06:43.748Z,16.20
2022-12-31T13:19:55.297Z,16.20
2022-12-31T13:26:18.487Z,16.20
2022-12-31T13:32:34.105Z,16.40
2022-12-31T13:38:49.304Z,16.40
2022-12-31T13:44:59.509Z,16.40
2022-12-31T13:51:07.469Z,16.20
2022-12-31T13:57:34.645Z,16.30
2022-12-31T14:03:54.893Z,16.10
2022-12-31T14:09:56.713Z,15.90
2022-12-31T14:16:13.767Z,15.70
2022-12-31T14:22:33.997Z,15.50
2022-12-31T14:28:47.651Z,15.50
2022-12-31T14:35:22.341Z,15.50
2022-12-31T14:41:40.400Z,15.50
2022-12-31T14:47:55.487Z,15.50
2022-12-31T14:53:58.653Z,15.40
2022-12-31T15:00:17.703Z,15.20
2022-12-31T15:06:50.868Z,15.20
2022-12-31T15:13:12.670Z,15.00
2022-12-31T15:19:20.289Z,15.00
2022-12-31T15:25:40.349Z,14.80
2022-12-31T15:31:46.870Z,14.80
2022-12-31T15:38:12.809Z,14.80
2022-12-31T15:44:26.248Z,14.80
2022-12-31T15:50:29.176Z,14.70
2022-12-31T15:56:40.803Z,14.70
2022-12-31T16:02:43.279Z,14.70
2022-12-31T16:08:47.996Z,14.70
2022-12-31T16:14:54.094Z,14.70
2022-12-31T16:20:55.925Z,14.70
2022-12-31T16:27:02.878Z,14.70
2022-12-31T16:33:13.631Z,14.70
2022-12-31T16:39:27.263Z,14.80
2022-12-31T16:45:36.539Z,14.90
2022-12-31T16:51:38.559Z,14.80
2022-12-31T16:57:44.053Z,14.80
2022-12-31T17:03:51.331Z,14.80
2022-12-31T17:10:42.109Z,14.70
2022-12-31T17:17:03.117Z,14.70
2022-12-31T17:23:09.404Z,14.60
2022-12-31T17:29:26.427Z,14.60
2022-12-31T17:35:34.545Z,14.70
2022-12-31T17:41:36.350Z,14.70
2022-12-31T17:47:46.521Z,14.60
2022-12-31T17:53:48.604Z,14.80
2022-12-31T17:59:50.678Z,14.70
2022-12-31T18:05:52.756Z,14.90
2022-12-31T18:11:59.705Z,14.90
2022-12-31T18:18:40.139Z,15.00
2022-12-31T18:24:42.846Z,15.00
2022-12-31T18:30:46.551Z,15.00
2022-12-31T18:36:48.437Z,15.20
2022-12-31T18:42:50.367Z,15.10
2022-12-31T18:48:52.363Z,15.10
2022-12-31T18:54:54.180Z,15.10
2022-12-31T19:00:56.041Z,15.10
2022-12-31T19:06:57.857Z,15.10
2022-12-31T19:12:59.651Z,15.20
2022-12-31T19:19:06.801Z,15.20
2022-12-31T19:25:25.599Z,15.20
2022-12-31T19:31:27.391Z,15.10
2022-12-31T19:37:29.132Z,15.20
2022-12-31T19:43:30.982Z,15.20
2022-12-31T19:49:32.854Z,15.00
2022-12-31T19:55:34.591Z,14.90
2022-12-31T20:01:36.715Z,14.80
2022-12-31T20:07:38.806Z,14.70
2022-12-31T20:13:42.031Z,14.80
2022-12-31T20:19:43.877Z,14.80
2022-12-31T20:25:56.845Z,14.80
2022-12-31T20:31:58.783Z,14.70
2022-12-31T20:38:00.543Z,14.70
2022-12-31T20:44:02.263Z,14.80
2022-12-31T20:50:14.386Z,14.80
2022-12-31T20:56:17.143Z,14.70
2022-12-31T21:02:21.380Z,14.70
2022-12-31T21:08:23.700Z,14.80
2022-12-31T21:14:26.526Z,14.90
2022-12-31T21:20:28.287Z,15.00
2022-12-31T21:26:30.650Z,15.20
2022-12-31T21:32:32.396Z,15.20
2022-12-31T21:38:36.871Z,15.20
2022-12-31T21:44:38.631Z,15.30
2022-12-31T21:50:40.454Z,15.30
2022-12-31T21:56:42.181Z,15.30
2022-12-31T22:03:02.694Z,15.50
2022-12-31T22:09:04.521Z,15.30
2022-12-31T22:15:15.708Z,15.20
2022-12-31T22:21:20.842Z,15.30
2022-12-31T22:27:29.531Z,15.30
2022-12-31T22:33:31.606Z,15.30
2022-12-31T22:39:44.691Z,15.30
2022-12-31T22:45:46.766Z,15.30
2022-12-31T22:51:57.578Z,15.20
2022-12-31T22:58:02.957Z,15.20
2022-12-31T23:04:05.778Z,15.10
2022-12-31T23:10:27.990Z,15.20
2022-12-31T23:16:49.035Z,15.20
2022-12-31T23:23:09.790Z,15.30
2022-12-31T23:29:11.757Z,15.20
2022-12-31T23:35:14.077Z,15.20
2022-12-31T23:41:19.284Z,15.30
2022-12-31T23:47:21.178Z,15.30
2022-12-31T23:53:23.744Z,15.20
2022-12-31T23:59:25.517Z,15.20
